Time;durP1;ratioP1;P1;durP2;ratioP2;P2;SDS_P1;SDS_P2;PMS_P1;PMS_P2;Temp;Humidity;BMP_temperature;BMP_pressure;BME280_temperature;BME280_humidity;BME280_pressure;Samples;Min_cycle;Max_cycle;Signal;HPM_P1;HPM_P2
2021/12/13 00:00:19;;;;;;;;;;;;;;;-0.30;95.96;101067.68;1761478;80;21972;-82
2021/12/13 00:02:52;;;;;;;;;;;;;;;-0.46;96.34;101065.72;1757574;80;20185;-83
2021/12/13 00:05:30;;;;;;;;;;;;;;;-0.32;96.52;101066.45;1761344;80;20095;-82
2021/12/13 00:07:59;;;;;;;;;;;;;;;-0.29;96.54;101049.91;1764973;80;21067;-82
2021/12/13 00:10:31;;;;;;;;;;;;;;;-0.17;95.82;101061.08;1748317;80;20195;-82
2021/12/13 00:13:03;;;;;;;;;;;;;;;-0.14;95.56;101058.36;1756699;80;22051;-83
2021/12/13 00:15:32;;;;;;;;;;;;;;;-0.21;95.67;101056.45;1763380;80;20661;-82
2021/12/13 00:17:58;;;;;;;;;;;;;;;-0.13;95.68;101056.12;1762898;80;20140;-82
2021/12/13 00:20:40;;;;;;;;;;;;;;;-0.04;95.63;101063.53;1759966;80;20203;-82
2021/12/13 00:23:21;;;;;;;;;;;;;;;-0.23;95.58;101065.23;1763712;80;20178;-81
2021/12/13 00:25:48;;;;;;;;;;;;;;;-0.15;95.70;101063.61;1762129;80;22475;-83
2021/12/13 00:28:17;;;;;;;;;;;;;;;-0.05;95.71;101065.75;1752063;80;20809;-82
2021/12/13 00:31:20;;;;;;;;;;;;;;;-0.04;95.06;101064.83;1758389;80;20140;-83
2021/12/13 00:34:22;;;;;;;;;;;;;;;-0.09;95.65;101068.55;1752835;80;20176;-82
2021/12/13 00:36:53;;;;;;;;;;;;;;;0.07;94.93;101075.22;1752914;80;20110;-81
2021/12/13 00:39:24;;;;;;;;;;;;;;;0.04;94.42;101074.88;1763092;80;21060;-83
2021/12/13 00:41:50;;;;;;;;;;;;;;;0.11;94.55;101075.45;1756988;80;20172;-81
2021/12/13 00:44:19;;;;;;;;;;;;;;;0.07;94.37;101081.71;1759690;80;20140;-81
2021/12/13 00:46:45;;;;;;;;;;;;;;;0.06;94.44;101083.44;1756781;80;21219;-82
2021/12/13 00:49:11;;;;;;;;;;;;;;;0.15;94.48;101082.22;1719417;80;20154;-81
2021/12/13 00:51:44;;;;;;;;;;;;;;;-0.03;93.73;101081.27;1709332;81;21099;-82
2021/12/13 00:54:12;;;;;;;;;;;;;;;-0.15;94.52;101093.00;1724993;81;20186;-81
2021/12/13 00:56:48;;;;;;;;;;;;;;;-0.24;95.10;101080.41;1736455;81;20128;-81
2021/12/13 00:59:25;;;;;;;;;;;;;;;-0.23;95.16;101076.91;1717414;81;20180;-80
2021/12/13 01:01:54;;;;;;;;;;;;;;;-0.29;95.52;101077.16;1723363;81;20242;-81
2021/12/13 01:04:20;;;;;;;;;;;;;;;-0.34;95.94;101072.59;1721717;81;22536;-83
2021/12/13 01:07:18;;;;;;;;;;;;;;;-0.28;96.04;101078.83;1726062;81;20456;-82
2021/12/13 01:10:21;;;;;;;;;;;;;;;-0.17;95.88;101081.84;1691152;81;20172;-81
2021/12/13 01:12:48;;;;;;;;;;;;;;;-0.39;95.82;101077.55;1728461;81;20252;-80
2021/12/13 01:15:36;;;;;;;;;;;;;;;-0.61;97.14;101075.41;1730563;80;20192;-80
2021/12/13 01:18:19;;;;;;;;;;;;;;;-0.44;97.34;101074.27;1725963;81;20164;-80
2021/12/13 01:20:56;;;;;;;;;;;;;;;-0.35;97.00;101072.23;1704275;83;20137;-82
2021/12/13 01:23:15;;;;;;;;;;;;;;;-0.26;96.86;101071.84;1706941;82;20168;-82
2021/12/13 01:26:01;;;;;;;;;;;;;;;-0.23;96.40;101066.53;1693732;82;20527;-83
2021/12/13 01:28:26;;;;;;;;;;;;;;;-0.15;96.11;101062.31;1703737;83;20202;-82
2021/12/13 01:31:01;;;;;;;;;;;;;;;-0.04;95.88;101057.03;1716506;81;21929;-81
2021/12/13 01:33:28;;;;;;;;;;;;;;;-0.03;95.44;101056.14;1726313;81;20177;-82
2021/12/13 01:35:56;;;;;;;;;;;;;;;-0.13;94.79;101054.83;1725669;81;20176;-81
2021/12/13 01:38:32;;;;;;;;;;;;;;;-0.44;96.19;101065.19;1723127;81;20203;-81
2021/12/13 01:40:52;;;;;;;;;;;;;;;-0.65;97.10;101069.95;1725307;81;20164;-82
2021/12/13 01:43:24;;;;;;;;;;;;;;;-0.48;97.42;101068.84;1731759;81;21943;-82
2021/12/13 01:45:50;;;;;;;;;;;;;;;-0.61;97.53;101072.36;1747431;80;20136;-81
2021/12/13 01:48:22;;;;;;;;;;;;;;;-0.69;98.62;101070.99;1736252;81;20510;-83
2021/12/13 01:50:52;;;;;;;;;;;;;;;-0.60;98.56;101069.33;1744946;81;20242;-82
2021/12/13 01:53:21;;;;;;;;;;;;;;;-0.53;98.20;101077.23;1747092;81;20163;-81
2021/12/13 01:55:48;;;;;;;;;;;;;;;-0.48;98.34;101076.63;1741708;80;21897;-82
2021/12/13 01:58:38;;;;;;;;;;;;;;;-0.48;98.05;101072.73;1742082;80;20227;-82
2021/12/13 02:03:39;;;;;;;;;;;;;;;-0.28;97.23;101073.21;1732824;81;20152;-82
2021/12/13 02:06:05;;;;;;;;;;;;;;;-0.16;97.13;101071.83;1707727;80;20537;-81
2021/12/13 02:08:30;;;;;;;;;;;;;;;-0.33;96.43;101060.02;1748017;81;21108;-81
2021/12/13 02:10:56;;;;;;;;;;;;;;;-0.32;96.90;101056.53;1740334;81;20145;-82
2021/12/13 02:13:27;;;;;;;;;;;;;;;-0.36;96.10;101057.09;1743927;81;20144;-82
2021/12/13 02:18:42;;;;;;;;;;;;;;;-0.49;96.49;101055.46;1733099;81;20115;-84
2021/12/13 02:21:16;;;;;;;;;;;;;;;-0.64;97.15;101050.89;1745012;80;21062;-83
2021/12/13 02:23:41;;;;;;;;;;;;;;;-0.50;97.61;101056.36;1753088;81;20148;-83
2021/12/13 02:26:07;;;;;;;;;;;;;;;-0.48;97.39;101063.65;1748724;80;20220;-83
2021/12/13 02:28:34;;;;;;;;;;;;;;;-0.43;97.27;101066.89;1753050;80;20189;-83
2021/12/13 02:31:04;;;;;;;;;;;;;;;-0.19;96.86;101062.88;1746381;80;20164;-83
2021/12/13 02:33:35;;;;;;;;;;;;;;;-0.12;95.62;101063.48;1743220;81;21104;-83
2021/12/13 02:36:06;;;;;;;;;;;;;;;-0.10;94.90;101065.09;1748163;81;20134;-82
2021/12/13 02:38:31;;;;;;;;;;;;;;;-0.10;94.66;101059.89;1736789;81;20193;-81
2021/12/13 02:40:57;;;;;;;;;;;;;;;-0.27;94.56;101068.85;1742114;81;20464;-81
2021/12/13 02:43:25;;;;;;;;;;;;;;;-0.25;95.19;101074.37;1744506;81;20156;-81
2021/12/13 02:45:53;;;;;;;;;;;;;;;-0.27;94.95;101068.85;1746765;81;21223;-81
2021/12/13 02:48:37;;;;;;;;;;;;;;;-0.32;95.26;101064.31;1740233;81;20148;-80
2021/12/13 02:51:09;;;;;;;;;;;;;;;-0.19;95.35;101062.88;1723896;81;20207;-81
2021/12/13 02:53:41;;;;;;;;;;;;;;;-0.07;95.01;101064.95;1706164;81;20172;-82
2021/12/13 02:56:07;;;;;;;;;;;;;;;0.02;94.64;101073.25;1719545;81;21059;-82
2021/12/13 02:58:33;;;;;;;;;;;;;;;0.08;94.38;101075.59;1725284;81;20993;-83
2021/12/13 03:01:06;;;;;;;;;;;;;;;0.15;94.47;101074.42;1733870;80;20250;-83
2021/12/13 03:03:34;;;;;;;;;;;;;;;0.22;94.31;101065.91;1718575;81;20223;-81
2021/12/13 03:06:01;;;;;;;;;;;;;;;0.17;94.22;101062.20;1712884;81;20144;-82
2021/12/13 03:08:30;;;;;;;;;;;;;;;0.09;94.64;101056.51;1707069;81;20225;-80
2021/12/13 03:10:59;;;;;;;;;;;;;;;0.01;94.62;101052.11;1725815;81;21986;-80
2021/12/13 03:13:25;;;;;;;;;;;;;;;-0.10;94.88;101059.89;1727940;80;20179;-80
2021/12/13 03:16:00;;;;;;;;;;;;;;;-0.01;95.48;101067.30;1722822;81;20148;-80
2021/12/13 03:18:32;;;;;;;;;;;;;;;-0.03;95.36;101063.92;1701818;83;20170;-82
2021/12/13 03:21:07;;;;;;;;;;;;;;;-0.02;95.61;101064.77;1713353;81;20197;-81
2021/12/13 03:23:49;;;;;;;;;;;;;;;-0.15;95.85;101059.25;1719588;81;21104;-82
2021/12/13 03:26:44;;;;;;;;;;;;;;;-0.07;96.17;101059.77;1711970;81;20153;-82
2021/12/13 03:29:22;;;;;;;;;;;;;;;0.01;96.03;101058.61;1703575;83;20185;-82
2021/12/13 03:31:51;;;;;;;;;;;;;;;0.13;95.79;101061.51;1706127;83;21215;-81
2021/12/13 03:34:22;;;;;;;;;;;;;;;0.11;95.24;101055.55;1710487;82;20173;-80
2021/12/13 03:36:55;;;;;;;;;;;;;;;0.05;95.37;101068.80;1709068;82;21125;-84
2021/12/13 03:39:24;;;;;;;;;;;;;;;0.12;95.79;101069.36;1709181;81;20201;-82
2021/12/13 03:41:51;;;;;;;;;;;;;;;-0.07;96.04;101064.13;1725166;81;20678;-80
2021/12/13 03:44:19;;;;;;;;;;;;;;;0.00;95.83;101061.66;1727235;81;20187;-78
2021/12/13 03:46:46;;;;;;;;;;;;;;;0.02;95.81;101062.44;1725948;81;20509;-82
2021/12/13 03:49:12;;;;;;;;;;;;;;;0.03;95.67;101071.05;1728412;81;21161;-82
2021/12/13 03:51:39;;;;;;;;;;;;;;;0.07;95.76;101063.53;1749249;81;20164;-82
2021/12/13 03:54:06;;;;;;;;;;;;;;;-0.06;95.99;101060.63;1739153;81;20629;-82
2021/12/13 03:56:35;;;;;;;;;;;;;;;-0.23;96.88;101054.84;1740035;81;20698;-82
2021/12/13 03:59:08;;;;;;;;;;;;;;;-0.28;96.88;101061.96;1743870;81;20293;-83
2021/12/13 04:01:40;;;;;;;;;;;;;;;-0.24;97.10;101064.83;1741958;80;21343;-81
2021/12/13 04:04:07;;;;;;;;;;;;;;;-0.34;97.63;101067.41;1728009;80;20161;-81
2021/12/13 04:06:32;;;;;;;;;;;;;;;-0.39;98.45;101069.76;1746131;81;20193;-81
2021/12/13 04:08:58;;;;;;;;;;;;;;;-0.36;98.62;101068.77;1750452;80;21281;-81
2021/12/13 04:11:25;;;;;;;;;;;;;;;-0.39;98.46;101064.56;1744998;80;20156;-81
2021/12/13 04:14:09;;;;;;;;;;;;;;;-0.35;98.33;101065.73;1745791;81;21071;-82
2021/12/13 04:16:36;;;;;;;;;;;;;;;-0.32;98.36;101077.29;1742041;81;20170;-81
2021/12/13 04:19:09;;;;;;;;;;;;;;;-0.19;98.20;101075.86;1743590;81;20266;-81
2021/12/13 04:21:59;;;;;;;;;;;;;;;-0.09;98.04;101065.48;1742852;81;20814;-82
2021/12/13 04:24:33;;;;;;;;;;;;;;;0.05;97.77;101075.72;1745330;81;20195;-83
2021/12/13 04:27:03;;;;;;;;;;;;;;;0.12;97.29;101074.55;1750991;81;21997;-82
2021/12/13 04:29:31;;;;;;;;;;;;;;;-0.01;96.77;101075.08;1745196;81;20312;-82
2021/12/13 04:31:57;;;;;;;;;;;;;;;-0.16;97.45;101074.89;1739027;80;20281;-82
2021/12/13 04:34:25;;;;;;;;;;;;;;;-0.16;98.11;101077.02;1745062;80;20945;-81
2021/12/13 04:36:53;;;;;;;;;;;;;;;-0.09;98.06;101073.27;1739536;81;20169;-82
2021/12/13 04:39:27;;;;;;;;;;;;;;;0.01;97.74;101072.42;1742273;81;21103;-82
2021/12/13 04:41:59;;;;;;;;;;;;;;;0.08;97.57;101079.05;1745180;80;20215;-81
2021/12/13 04:44:37;;;;;;;;;;;;;;;-0.16;97.38;101072.30;1744248;81;20157;-81
2021/12/13 04:47:11;;;;;;;;;;;;;;;-0.12;97.83;101085.09;1751441;81;20783;-82
2021/12/13 04:49:40;;;;;;;;;;;;;;;-0.18;97.93;101074.95;1720324;80;20232;-82
2021/12/13 04:52:09;;;;;;;;;;;;;;;-0.24;98.54;101080.41;1702159;82;21158;-82
2021/12/13 04:54:35;;;;;;;;;;;;;;;-0.28;98.29;101078.40;1697766;82;20238;-82
2021/12/13 04:57:02;;;;;;;;;;;;;;;-0.26;98.36;101071.84;1695685;84;20229;-81
2021/12/13 04:59:28;;;;;;;;;;;;;;;-0.44;98.20;101069.55;1693109;84;20185;-82
2021/12/13 05:01:56;;;;;;;;;;;;;;;-0.32;98.58;101061.72;1702487;83;20807;-81
2021/12/13 05:04:23;;;;;;;;;;;;;;;-0.29;98.49;101068.08;1702750;82;21175;-81
2021/12/13 05:06:49;;;;;;;;;;;;;;;-0.19;98.39;101065.47;1694374;83;20157;-82
2021/12/13 05:09:17;;;;;;;;;;;;;;;-0.17;97.95;101070.17;1693183;84;20188;-82
2021/12/13 05:11:58;;;;;;;;;;;;;;;-0.17;97.91;101066.27;1696762;83;20199;-82
2021/12/13 05:14:30;;;;;;;;;;;;;;;-0.14;97.59;101071.34;1706465;83;20154;-82
2021/12/13 05:16:57;;;;;;;;;;;;;;;-0.08;97.61;101072.38;1712836;82;21103;-82
2021/12/13 05:19:31;;;;;;;;;;;;;;;-0.16;98.22;101079.62;1708531;82;21023;-82
2021/12/13 05:21:58;;;;;;;;;;;;;;;-0.06;98.26;101084.83;1700451;81;21044;-82
2021/12/13 05:24:27;;;;;;;;;;;;;;;-0.10;97.88;101080.66;1708718;83;20180;-82
2021/12/13 05:26:59;;;;;;;;;;;;;;;-0.07;98.02;101081.83;1711584;82;20637;-84
2021/12/13 05:29:31;;;;;;;;;;;;;;;0.03;98.19;101082.74;1709994;82;21336;-82
2021/12/13 05:32:06;;;;;;;;;;;;;;;0.04;97.40;101079.25;1704350;83;20223;-84
2021/12/13 05:34:37;;;;;;;;;;;;;;;0.13;97.50;101084.87;1715152;82;20191;-84
2021/12/13 05:37:03;;;;;;;;;;;;;;;0.12;96.94;101090.97;1706923;83;20205;-83
2021/12/13 05:39:29;;;;;;;;;;;;;;;0.07;97.28;101088.20;1711295;81;20216;-84
2021/12/13 05:41:57;;;;;;;;;;;;;;;0.11;97.20;101096.23;1689655;82;21150;-84
2021/12/13 05:44:26;;;;;;;;;;;;;;;0.12;97.27;101095.34;1687482;84;20156;-85
2021/12/13 05:46:51;;;;;;;;;;;;;;;0.10;96.90;101093.27;1693893;84;20212;-83
2021/12/13 05:49:23;;;;;;;;;;;;;;;-0.09;97.63;101090.61;1705523;81;20154;-85
2021/12/13 05:51:51;;;;;;;;;;;;;;;-0.14;97.64;101099.89;1745366;81;20137;-83
2021/12/13 05:54:31;;;;;;;;;;;;;;;-0.06;97.91;101097.81;1745803;81;21035;-82
2021/12/13 05:57:18;;;;;;;;;;;;;;;-0.03;97.78;101103.34;1752930;80;20188;-82
2021/12/13 05:59:56;;;;;;;;;;;;;;;-0.02;97.59;101111.06;1726965;81;21090;-82
2021/12/13 06:02:51;;;;;;;;;;;;;;;0.01;97.44;101115.73;1699710;81;20779;-82
2021/12/13 06:05:37;;;;;;;;;;;;;;;-0.04;97.14;101127.14;1710353;81;20227;-83
2021/12/13 06:08:06;;;;;;;;;;;;;;;0.11;97.50;101119.17;1735645;80;21162;-82
2021/12/13 06:10:50;;;;;;;;;;;;;;;0.09;97.08;101124.03;1754727;80;20156;-83
2021/12/13 06:13:44;;;;;;;;;;;;;;;-0.14;98.00;101130.18;1745040;80;20139;-85
2021/12/13 06:16:25;;;;;;;;;;;;;;;-0.10;98.29;101133.88;1712856;80;20194;-83
2021/12/13 06:19:03;;;;;;;;;;;;;;;-0.34;99.34;101140.94;1742819;80;20199;-81
2021/12/13 06:21:42;;;;;;;;;;;;;;;-0.30;99.65;101136.45;1750970;80;21324;-82
2021/12/13 06:24:09;;;;;;;;;;;;;;;-0.17;99.70;101143.28;1745641;80;20643;-86
2021/12/13 06:26:35;;;;;;;;;;;;;;;-0.10;99.44;101143.44;1747629;80;20158;-84
2021/12/13 06:29:02;;;;;;;;;;;;;;;-0.18;99.29;101146.34;1753377;80;20236;-84
2021/12/13 06:31:40;;;;;;;;;;;;;;;-0.14;99.43;101153.11;1736509;80;20200;-83
2021/12/13 06:34:09;;;;;;;;;;;;;;;-0.06;99.04;101153.62;1747576;80;21322;-82
2021/12/13 06:36:37;;;;;;;;;;;;;;;-0.09;99.06;101163.31;1745476;80;20513;-84
2021/12/13 06:39:04;;;;;;;;;;;;;;;0.12;98.44;101162.86;1747148;80;20972;-83
2021/12/13 06:41:33;;;;;;;;;;;;;;;0.27;98.21;101159.62;1735570;80;20627;-83
2021/12/13 06:44:29;;;;;;;;;;;;;;;0.32;97.56;101160.26;1752790;80;20495;-83
2021/12/13 06:46:59;;;;;;;;;;;;;;;0.38;97.10;101159.16;1753889;80;21180;-84
2021/12/13 06:49:40;;;;;;;;;;;;;;;0.46;96.99;101161.44;1744625;80;20527;-83
2021/12/13 06:52:15;;;;;;;;;;;;;;;0.36;96.95;101159.70;1744768;81;20173;-78
2021/12/13 06:54:49;;;;;;;;;;;;;;;0.37;97.14;101166.56;1740888;81;21555;-79
2021/12/13 06:57:19;;;;;;;;;;;;;;;0.50;96.93;101160.41;1740196;80;20187;-80
2021/12/13 06:59:50;;;;;;;;;;;;;;;0.38;96.51;101155.73;1736812;81;21108;-81
2021/12/13 07:02:30;;;;;;;;;;;;;;;0.39;96.91;101166.49;1745173;81;20187;-80
2021/12/13 07:04:59;;;;;;;;;;;;;;;0.40;97.15;101169.49;1737513;81;20185;-80
2021/12/13 07:07:31;;;;;;;;;;;;;;;0.46;96.73;101177.03;1749309;81;21219;-80
2021/12/13 07:10:04;;;;;;;;;;;;;;;0.52;96.60;101167.67;1750263;81;20786;-79
2021/12/13 07:12:31;;;;;;;;;;;;;;;0.28;96.46;101178.20;1743403;81;20154;-78
2021/12/13 07:14:57;;;;;;;;;;;;;;;0.26;96.75;101177.41;1733201;80;20291;-80
2021/12/13 07:17:29;;;;;;;;;;;;;;;0.47;96.63;101181.33;1744837;80;20203;-79
2021/12/13 07:19:59;;;;;;;;;;;;;;;0.55;96.58;101189.63;1738739;81;20140;-81
2021/12/13 07:22:27;;;;;;;;;;;;;;;0.65;95.89;101189.63;1740239;81;20081;-81
2021/12/13 07:24:55;;;;;;;;;;;;;;;0.66;95.24;101187.40;1751306;81;21319;-81
2021/12/13 07:27:33;;;;;;;;;;;;;;;0.49;94.78;101189.89;1712996;81;20206;-81
2021/12/13 07:30:23;;;;;;;;;;;;;;;0.25;96.03;101195.22;1712514;81;20192;-79
2021/12/13 07:32:54;;;;;;;;;;;;;;;0.12;97.08;101200.52;1718498;81;20134;-80
2021/12/13 07:35:27;;;;;;;;;;;;;;;-0.12;97.85;101203.21;1742711;81;20186;-79
2021/12/13 07:38:06;;;;;;;;;;;;;;;-0.13;98.20;101208.00;1739785;81;20213;-80
2021/12/13 07:40:50;;;;;;;;;;;;;;;0.11;97.64;101207.91;1725039;81;20174;-80
2021/12/13 07:43:30;;;;;;;;;;;;;;;-0.04;97.29;101211.99;1747725;80;20552;-82
2021/12/13 07:46:03;;;;;;;;;;;;;;;-0.03;97.62;101222.31;1746598;80;20192;-81
2021/12/13 07:48:32;;;;;;;;;;;;;;;-0.11;97.46;101219.19;1734325;80;20198;-80
2021/12/13 07:51:14;;;;;;;;;;;;;;;-0.17;98.14;101219.44;1757940;80;21084;-79
2021/12/13 07:53:46;;;;;;;;;;;;;;;-0.19;97.44;101222.09;1759620;80;20120;-82
2021/12/13 07:56:15;;;;;;;;;;;;;;;-0.11;97.47;101225.69;1740342;80;20177;-81
2021/12/13 07:58:46;;;;;;;;;;;;;;;-0.01;97.97;101221.80;1678100;81;20184;-81
2021/12/13 08:01:17;;;;;;;;;;;;;;;0.19;97.01;101225.34;1737608;81;20209;-80
2021/12/13 08:03:47;;;;;;;;;;;;;;;0.13;96.98;101224.30;1740421;81;20919;-80
2021/12/13 08:06:15;;;;;;;;;;;;;;;-0.21;96.68;101226.47;1744346;81;20118;-80
2021/12/13 08:08:50;;;;;;;;;;;;;;;-0.30;97.58;101228.59;1744699;81;20203;-81
2021/12/13 08:11:19;;;;;;;;;;;;;;;-0.24;97.83;101227.89;1735205;81;20191;-80
2021/12/13 08:13:51;;;;;;;;;;;;;;;0.05;97.09;101235.42;1743879;81;20125;-81
2021/12/13 08:16:22;;;;;;;;;;;;;;;-0.19;96.68;101232.91;1746496;81;20682;-82
2021/12/13 08:18:49;;;;;;;;;;;;;;;-0.27;97.50;101231.91;1741443;81;20190;-81
2021/12/13 08:21:21;;;;;;;;;;;;;;;-0.10;97.70;101228.65;1740594;80;20182;-81
2021/12/13 08:23:52;;;;;;;;;;;;;;;-0.12;97.37;101231.77;1744318;80;20486;-80
2021/12/13 08:26:27;;;;;;;;;;;;;;;-0.21;97.60;101230.37;1741093;81;20200;-78
2021/12/13 08:28:55;;;;;;;;;;;;;;;-0.29;97.88;101222.51;1739154;81;21148;-78
2021/12/13 08:31:26;;;;;;;;;;;;;;;-0.38;98.44;101220.64;1740031;81;20174;-78
2021/12/13 08:33:56;;;;;;;;;;;;;;;-0.16;98.11;101230.19;1743862;81;20277;-78
2021/12/13 08:36:36;;;;;;;;;;;;;;;-0.38;98.20;101231.02;1733134;81;20435;-79
2021/12/13 08:39:16;;;;;;;;;;;;;;;-0.39;98.01;101233.25;1736360;81;20987;-80
2021/12/13 08:41:54;;;;;;;;;;;;;;;-0.44;98.08;101226.06;1748629;80;21421;-80
2021/12/13 08:44:25;;;;;;;;;;;;;;;-0.47;98.60;101232.67;1730343;80;20145;-80
2021/12/13 08:47:00;;;;;;;;;;;;;;;-0.38;98.52;101234.91;1745981;80;20518;-79
2021/12/13 08:49:45;;;;;;;;;;;;;;;-0.73;99.85;101233.64;1745411;81;20326;-80
2021/12/13 08:52:17;;;;;;;;;;;;;;;-0.62;99.92;101230.66;1721528;81;21008;-80
2021/12/13 08:55:02;;;;;;;;;;;;;;;-0.38;99.63;101229.72;1749269;81;22757;-80
2021/12/13 08:57:59;;;;;;;;;;;;;;;-0.27;99.00;101234.96;1752392;81;20219;-79
2021/12/13 09:00:36;;;;;;;;;;;;;;;-0.17;98.51;101238.91;1740882;81;20166;-79
2021/12/13 09:03:25;;;;;;;;;;;;;;;0.01;97.91;101233.41;1744550;81;20174;-79
2021/12/13 09:06:14;;;;;;;;;;;;;;;-0.03;97.67;101238.36;1742486;81;20169;-79
2021/12/13 09:08:49;;;;;;;;;;;;;;;0.14;97.30;101236.35;1744792;81;21157;-81
2021/12/13 09:11:33;;;;;;;;;;;;;;;0.23;96.65;101239.88;1744698;81;21202;-79
2021/12/13 09:14:05;;;;;;;;;;;;;;;0.24;96.91;101245.47;1737569;81;20691;-79
2021/12/13 09:16:53;;;;;;;;;;;;;;;0.31;95.62;101240.86;1753559;81;20174;-79
2021/12/13 09:19:28;;;;;;;;;;;;;;;0.33;95.14;101233.87;1741192;81;20173;-79
2021/12/13 09:22:06;;;;;;;;;;;;;;;0.33;94.66;101237.30;1751149;81;21325;-80
2021/12/13 09:24:37;;;;;;;;;;;;;;;0.50;94.98;101237.06;1727741;81;21000;-80
2021/12/13 09:27:25;;;;;;;;;;;;;;;0.62;93.75;101236.98;1740766;81;20485;-81
2021/12/13 09:30:15;;;;;;;;;;;;;;;0.40;93.53;101234.45;1739481;80;20168;-80
2021/12/13 09:32:43;;;;;;;;;;;;;;;0.32;94.83;101223.91;1747713;80;20192;-79
2021/12/13 09:35:38;;;;;;;;;;;;;;;0.49;94.90;101224.50;1742515;80;22828;-77
2021/12/13 09:38:20;;;;;;;;;;;;;;;0.42;94.47;101228.29;1737236;81;20171;-79
2021/12/13 09:40:48;;;;;;;;;;;;;;;0.25;94.40;101218.59;1738676;81;20143;-80
2021/12/13 09:43:14;;;;;;;;;;;;;;;0.15;94.70;101225.06;1715476;80;20174;-79
2021/12/13 09:45:46;;;;;;;;;;;;;;;0.20;94.97;101217.09;1743218;80;20479;-79
2021/12/13 09:48:26;;;;;;;;;;;;;;;0.25;95.01;101219.90;1715608;80;20181;-78
2021/12/13 09:50:57;;;;;;;;;;;;;;;0.33;94.51;101225.61;1753532;80;20851;-78
2021/12/13 09:53:26;;;;;;;;;;;;;;;0.13;95.33;101226.89;1740463;80;20117;-80
2021/12/13 09:55:59;;;;;;;;;;;;;;;0.28;95.24;101221.07;1746024;80;20182;-81
2021/12/13 09:58:45;;;;;;;;;;;;;;;0.40;94.47;101221.45;1733606;80;20192;-80
2021/12/13 10:01:27;;;;;;;;;;;;;;;0.35;94.15;101226.38;1739817;80;20585;-80
2021/12/13 10:04:00;;;;;;;;;;;;;;;0.10;95.18;101225.25;1739162;80;20162;-79
2021/12/13 10:06:34;;;;;;;;;;;;;;;0.18;94.79;101226.24;1744146;80;20156;-80
2021/12/13 10:09:16;;;;;;;;;;;;;;;0.09;95.61;101228.75;1740911;80;20320;-78
2021/12/13 10:11:48;;;;;;;;;;;;;;;0.15;95.99;101212.08;1739954;80;20192;-79
2021/12/13 10:14:21;;;;;;;;;;;;;;;0.44;95.16;101214.77;1742694;80;21188;-79
2021/12/13 10:16:49;;;;;;;;;;;;;;;0.44;93.71;101217.83;1730098;80;20306;-79
2021/12/13 10:19:19;;;;;;;;;;;;;;;0.46;94.79;101214.24;1744071;80;20234;-79
2021/12/13 10:21:46;;;;;;;;;;;;;;;0.54;94.29;101223.02;1753657;80;20235;-79
2021/12/13 10:24:24;;;;;;;;;;;;;;;0.65;93.63;101218.66;1740668;80;20132;-80
2021/12/13 10:26:51;;;;;;;;;;;;;;;0.76;92.24;101215.59;1748508;80;20988;-79
2021/12/13 10:29:19;;;;;;;;;;;;;;;0.64;92.92;101220.42;1741148;80;20273;-79
2021/12/13 10:31:57;;;;;;;;;;;;;;;0.61;92.50;101224.45;1745266;80;20270;-79
2021/12/13 10:34:32;;;;;;;;;;;;;;;0.70;92.49;101226.66;1721984;80;20557;-80
2021/12/13 10:37:08;;;;;;;;;;;;;;;0.67;92.08;101228.09;1742755;80;20122;-80
2021/12/13 10:39:38;;;;;;;;;;;;;;;0.63;91.82;101229.13;1743289;80;20943;-78
2021/12/13 10:42:07;;;;;;;;;;;;;;;0.56;91.72;101231.61;1743758;80;20531;-79
2021/12/13 10:44:35;;;;;;;;;;;;;;;0.67;92.00;101228.09;1740813;80;20107;-80
2021/12/13 10:47:08;;;;;;;;;;;;;;;0.68;92.35;101223.30;1744112;80;20481;-80
2021/12/13 10:49:38;;;;;;;;;;;;;;;0.78;92.05;101221.56;1736862;80;20200;-80
2021/12/13 10:52:11;;;;;;;;;;;;;;;0.74;91.90;101224.77;1740595;80;39942;-81
2021/12/13 10:54:39;;;;;;;;;;;;;;;0.77;91.58;101225.09;1749811;80;20116;-80
2021/12/13 10:57:12;;;;;;;;;;;;;;;0.86;91.71;101224.70;1740927;80;20212;-80
2021/12/13 10:59:42;;;;;;;;;;;;;;;0.80;91.08;101227.09;1741684;80;20232;-80
2021/12/13 11:02:12;;;;;;;;;;;;;;;0.62;91.33;101222.25;1739618;80;20208;-79
2021/12/13 11:04:45;;;;;;;;;;;;;;;0.71;91.92;101216.66;1739330;80;22462;-80
2021/12/13 11:07:10;;;;;;;;;;;;;;;0.69;91.35;101218.46;1736339;80;20332;-79
2021/12/13 11:09:39;;;;;;;;;;;;;;;0.65;91.98;101213.02;1750627;80;20192;-79
2021/12/13 11:12:13;;;;;;;;;;;;;;;0.71;92.12;101210.59;1739382;80;20156;-81
2021/12/13 11:14:41;;;;;;;;;;;;;;;0.61;92.08;101210.16;1731813;80;20523;-81
2021/12/13 11:17:10;;;;;;;;;;;;;;;0.73;92.13;101211.83;1733236;80;22073;-81
2021/12/13 11:19:39;;;;;;;;;;;;;;;0.93;91.25;101216.16;1745829;80;20186;-80
2021/12/13 11:22:16;;;;;;;;;;;;;;;0.97;90.00;101214.66;1742197;80;20197;-80
2021/12/13 11:24:48;;;;;;;;;;;;;;;0.95;90.15;101213.89;1741233;80;20182;-80
2021/12/13 11:27:20;;;;;;;;;;;;;;;0.87;90.50;101213.36;1738288;80;20172;-81
2021/12/13 11:29:48;;;;;;;;;;;;;;;0.83;90.70;101220.93;1732131;80;21029;-80
2021/12/13 11:32:37;;;;;;;;;;;;;;;0.81;90.72;101208.43;1754659;80;20509;-79
2021/12/13 11:35:21;;;;;;;;;;;;;;;0.70;91.27;101210.23;1733244;80;21021;-80
2021/12/13 11:37:57;;;;;;;;;;;;;;;0.73;91.60;101208.80;1736163;80;20213;-79
2021/12/13 11:40:58;;;;;;;;;;;;;;;0.67;91.23;101215.09;1734944;80;20181;-81
2021/12/13 11:43:49;;;;;;;;;;;;;;;0.52;91.80;101206.19;1754917;80;21050;-79
2021/12/13 11:46:26;;;;;;;;;;;;;;;0.58;91.87;101212.89;1735221;80;20931;-79
2021/12/13 11:48:58;;;;;;;;;;;;;;;0.33;91.96;101205.29;1744369;80;20578;-79
2021/12/13 11:51:43;;;;;;;;;;;;;;;0.26;93.14;101208.58;1745164;80;20206;-80
2021/12/13 11:54:29;;;;;;;;;;;;;;;0.42;92.87;101209.23;1740103;81;20903;-81
2021/12/13 11:57:13;;;;;;;;;;;;;;;0.46;92.19;101210.80;1739812;80;22405;-80
2021/12/13 12:00:16;;;;;;;;;;;;;;;0.48;92.37;101208.98;1728022;81;20196;-80
2021/12/13 12:03:21;;;;;;;;;;;;;;;0.11;93.00;101209.20;1738799;81;20130;-79
2021/12/13 12:06:12;;;;;;;;;;;;;;;0.31;93.18;101214.45;1735235;81;21428;-78
2021/12/13 12:09:08;;;;;;;;;;;;;;;0.12;93.34;101213.50;1738619;80;20282;-79
2021/12/13 12:12:11;;;;;;;;;;;;;;;-0.14;94.42;101213.25;1716869;81;20899;-80
2021/12/13 12:14:40;;;;;;;;;;;;;;;0.10;94.44;101216.63;1734262;81;20095;-79
2021/12/13 12:17:11;;;;;;;;;;;;;;;0.14;93.86;101212.98;1747898;81;20207;-79
2021/12/13 12:19:41;;;;;;;;;;;;;;;0.32;92.78;101217.41;1747788;81;20134;-79
2021/12/13 12:22:17;;;;;;;;;;;;;;;0.38;92.42;101215.49;1738104;80;20181;-80
2021/12/13 12:24:51;;;;;;;;;;;;;;;0.29;93.11;101215.41;1724157;81;21107;-78
2021/12/13 12:27:27;;;;;;;;;;;;;;;0.22;92.54;101208.34;1743771;81;20156;-78
2021/12/13 12:29:58;;;;;;;;;;;;;;;0.06;93.20;101209.86;1742240;81;20090;-78
2021/12/13 12:32:30;;;;;;;;;;;;;;;-0.14;94.25;101206.33;1734796;81;20149;-79
2021/12/13 12:34:59;;;;;;;;;;;;;;;-0.07;95.18;101215.55;1738080;81;20223;-79
2021/12/13 12:37:45;;;;;;;;;;;;;;;0.10;94.38;101213.56;1732820;81;22732;-79
2021/12/13 12:40:35;;;;;;;;;;;;;;;0.02;94.26;101219.97;1736861;81;20181;-80
2021/12/13 12:43:01;;;;;;;;;;;;;;;-0.01;94.49;101223.09;1723786;81;20155;-78
2021/12/13 12:45:36;;;;;;;;;;;;;;;0.01;94.59;101217.00;1739379;81;20180;-80
2021/12/13 12:48:24;;;;;;;;;;;;;;;0.17;94.20;101219.34;1738042;81;20189;-78
2021/12/13 12:50:54;;;;;;;;;;;;;;;-0.02;93.94;101216.23;1738905;80;21937;-79
2021/12/13 12:53:31;;;;;;;;;;;;;;;0.02;94.33;101219.53;1704829;83;20117;-78
2021/12/13 12:55:59;;;;;;;;;;;;;;;-0.02;93.75;101213.63;1703720;84;20157;-78
2021/12/13 12:58:29;;;;;;;;;;;;;;;0.01;93.29;101214.41;1699817;82;20205;-78
2021/12/13 13:00:57;;;;;;;;;;;;;;;-0.07;93.73;101212.95;1705031;82;20149;-78
2021/12/13 13:03:32;;;;;;;;;;;;;;;0.01;93.55;101214.41;1703940;82;21179;-78
2021/12/13 13:06:13;;;;;;;;;;;;;;;0.13;93.95;101216.50;1672188;83;20644;-78
2021/12/13 13:08:42;;;;;;;;;;;;;;;0.07;93.70;101227.14;1701672;83;20176;-78
2021/12/13 13:14:00;;;;;;;;;;;;;;;-0.03;94.40;101232.70;1703968;84;20169;-79
2021/12/13 13:16:33;;;;;;;;;;;;;;;-0.06;94.51;101234.13;1701456;84;21162;-78
2021/12/13 13:19:02;;;;;;;;;;;;;;;0.15;94.33;101238.05;1704799;83;20132;-76
2021/12/13 13:21:27;;;;;;;;;;;;;;;0.19;93.76;101227.94;1704326;83;20129;-77